sensor_id;sensor_type;location;lat;lon;timestamp;P1;durP1;ratioP1;P2;durP2;ratioP2
71108;SDS011;59614;51.012;-1.648;2023-02-24T00:01:51;23.63;;;5.25;;
71108;SDS011;59614;51.012;-1.648;2023-02-24T00:04:25;19.02;;;6.57;;
71108;SDS011;59614;51.012;-1.648;2023-02-24T00:06:55;22.98;;;5.50;;
71108;SDS011;59614;51.012;-1.648;2023-02-24T00:09:22;15.70;;;5.15;;
71108;SDS011;59614;51.012;-1.648;2023-02-24T00:11:54;28.70;;;6.18;;
71108;SDS011;59614;51.012;-1.648;2023-02-24T00:14:33;19.35;;;5.43;;
71108;SDS011;59614;51.012;-1.648;2023-02-24T00:17:00;22.45;;;6.70;;
71108;SDS011;59614;51.012;-1.648;2023-02-24T00:19:28;14.02;;;5.57;;
71108;SDS011;59614;51.012;-1.648;2023-02-24T00:21:58;14.88;;;5.97;;
71108;SDS011;59614;51.012;-1.648;2023-02-24T00:24:24;20.35;;;5.75;;
71108;SDS011;59614;51.012;-1.648;2023-02-24T00:26:54;27.55;;;6.45;;
71108;SDS011;59614;51.012;-1.648;2023-02-24T00:29:21;22.58;;;5.32;;
71108;SDS011;59614;51.012;-1.648;2023-02-24T00:31:51;16.48;;;5.50;;
71108;SDS011;59614;51.012;-1.648;2023-02-24T00:34:26;20.83;;;5.40;;
71108;SDS011;59614;51.012;-1.648;2023-02-24T00:36:56;21.58;;;5.65;;
71108;SDS011;59614;51.012;-1.648;2023-02-24T00:39:22;19.92;;;5.63;;
71108;SDS011;59614;51.012;-1.648;2023-02-24T00:41:52;16.95;;;5.85;;
71108;SDS011;59614;51.012;-1.648;2023-02-24T00:44:22;19.67;;;6.20;;
71108;SDS011;59614;51.012;-1.648;2023-02-24T00:46:48;19.52;;;5.43;;
71108;SDS011;59614;51.012;-1.648;2023-02-24T00:49:15;17.75;;;5.25;;
71108;SDS011;59614;51.012;-1.648;2023-02-24T00:51:44;21.33;;;5.75;;
71108;SDS011;59614;51.012;-1.648;2023-02-24T00:54:13;17.40;;;5.43;;
71108;SDS011;59614;51.012;-1.648;2023-02-24T00:56:40;22.67;;;5.50;;
71108;SDS011;59614;51.012;-1.648;2023-02-24T00:59:08;15.63;;;5.47;;
71108;SDS011;59614;51.012;-1.648;2023-02-24T01:01:34;12.93;;;5.13;;
71108;SDS011;59614;51.012;-1.648;2023-02-24T01:04:01;14.57;;;5.10;;
71108;SDS011;59614;51.012;-1.648;2023-02-24T01:06:35;17.45;;;4.88;;
71108;SDS011;59614;51.012;-1.648;2023-02-24T01:09:05;11.85;;;4.63;;
71108;SDS011;59614;51.012;-1.648;2023-02-24T01:11:38;12.70;;;4.15;;
71108;SDS011;59614;51.012;-1.648;2023-02-24T01:14:25;22.45;;;4.85;;
71108;SDS011;59614;51.012;-1.648;2023-02-24T01:16:53;9.85;;;3.75;;
71108;SDS011;59614;51.012;-1.648;2023-02-24T01:19:20;15.90;;;4.90;;
71108;SDS011;59614;51.012;-1.648;2023-02-24T01:21:55;10.73;;;4.15;;
71108;SDS011;59614;51.012;-1.648;2023-02-24T01:24:25;15.65;;;4.32;;
71108;SDS011;59614;51.012;-1.648;2023-02-24T01:26:50;14.48;;;4.75;;
71108;SDS011;59614;51.012;-1.648;2023-02-24T01:29:17;16.77;;;4.63;;
71108;SDS011;59614;51.012;-1.648;2023-02-24T01:31:42;17.63;;;3.88;;
71108;SDS011;59614;51.012;-1.648;2023-02-24T01:34:09;14.43;;;4.50;;
71108;SDS011;59614;51.012;-1.648;2023-02-24T01:36:37;13.32;;;4.40;;
71108;SDS011;59614;51.012;-1.648;2023-02-24T01:39:07;17.90;;;4.95;;
71108;SDS011;59614;51.012;-1.648;2023-02-24T01:41:35;14.50;;;4.38;;
71108;SDS011;59614;51.012;-1.648;2023-02-24T01:46:41;12.85;;;3.85;;
71108;SDS011;59614;51.012;-1.648;2023-02-24T01:49:10;13.32;;;4.20;;
71108;SDS011;59614;51.012;-1.648;2023-02-24T01:51:51;10.23;;;3.83;;
71108;SDS011;59614;51.012;-1.648;2023-02-24T01:54:22;13.18;;;4.05;;
71108;SDS011;59614;51.012;-1.648;2023-02-24T01:56:52;15.75;;;4.28;;
71108;SDS011;59614;51.012;-1.648;2023-02-24T01:59:20;16.45;;;4.22;;
71108;SDS011;59614;51.012;-1.648;2023-02-24T02:01:50;15.23;;;4.38;;
71108;SDS011;59614;51.012;-1.648;2023-02-24T02:04:20;21.98;;;4.45;;
71108;SDS011;59614;51.012;-1.648;2023-02-24T02:06:54;15.90;;;4.30;;
71108;SDS011;59614;51.012;-1.648;2023-02-24T02:09:19;17.05;;;4.40;;
71108;SDS011;59614;51.012;-1.648;2023-02-24T02:11:45;12.07;;;4.90;;
71108;SDS011;59614;51.012;-1.648;2023-02-24T02:14:14;11.73;;;5.05;;
71108;SDS011;59614;51.012;-1.648;2023-02-24T02:16:47;20.92;;;5.03;;
71108;SDS011;59614;51.012;-1.648;2023-02-24T02:22:04;16.33;;;5.45;;
71108;SDS011;59614;51.012;-1.648;2023-02-24T02:27:21;11.05;;;4.85;;
71108;SDS011;59614;51.012;-1.648;2023-02-24T02:33:19;20.50;;;5.38;;
71108;SDS011;59614;51.012;-1.648;2023-02-24T02:36:08;16.50;;;5.20;;
71108;SDS011;59614;51.012;-1.648;2023-02-24T02:38:49;14.93;;;5.70;;
71108;SDS011;59614;51.012;-1.648;2023-02-24T02:41:21;19.73;;;5.97;;
71108;SDS011;59614;51.012;-1.648;2023-02-24T02:46:52;12.75;;;5.05;;
71108;SDS011;59614;51.012;-1.648;2023-02-24T02:51:57;17.42;;;5.30;;
71108;SDS011;59614;51.012;-1.648;2023-02-24T02:56:59;12.88;;;5.53;;
71108;SDS011;59614;51.012;-1.648;2023-02-24T02:59:30;19.30;;;5.72;;
71108;SDS011;59614;51.012;-1.648;2023-02-24T03:01:59;17.98;;;6.20;;
71108;SDS011;59614;51.012;-1.648;2023-02-24T03:04:51;14.32;;;5.85;;
71108;SDS011;59614;51.012;-1.648;2023-02-24T03:07:21;20.55;;;6.00;;
71108;SDS011;59614;51.012;-1.648;2023-02-24T03:09:55;17.00;;;6.05;;
71108;SDS011;59614;51.012;-1.648;2023-02-24T03:12:25;15.55;;;6.07;;
71108;SDS011;59614;51.012;-1.648;2023-02-24T03:14:59;15.10;;;6.47;;
71108;SDS011;59614;51.012;-1.648;2023-02-24T03:17:29;14.48;;;6.03;;
71108;SDS011;59614;51.012;-1.648;2023-02-24T03:20:00;19.73;;;6.60;;
71108;SDS011;59614;51.012;-1.648;2023-02-24T03:22:40;14.68;;;6.00;;
71108;SDS011;59614;51.012;-1.648;2023-02-24T03:25:19;22.63;;;6.68;;
71108;SDS011;59614;51.012;-1.648;2023-02-24T03:27:50;20.70;;;6.32;;
71108;SDS011;59614;51.012;-1.648;2023-02-24T03:30:23;21.98;;;7.45;;
71108;SDS011;59614;51.012;-1.648;2023-02-24T03:35:53;15.43;;;6.65;;
71108;SDS011;59614;51.012;-1.648;2023-02-24T03:38:25;22.70;;;6.68;;
71108;SDS011;59614;51.012;-1.648;2023-02-24T03:40:52;14.20;;;7.10;;
71108;SDS011;59614;51.012;-1.648;2023-02-24T03:43:38;22.00;;;6.82;;
71108;SDS011;59614;51.012;-1.648;2023-02-24T03:46:09;18.63;;;7.07;;
71108;SDS011;59614;51.012;-1.648;2023-02-24T03:48:37;20.40;;;7.15;;
71108;SDS011;59614;51.012;-1.648;2023-02-24T03:51:09;16.75;;;6.30;;
71108;SDS011;59614;51.012;-1.648;2023-02-24T03:53:53;18.90;;;7.20;;
71108;SDS011;59614;51.012;-1.648;2023-02-24T03:56:28;17.92;;;6.57;;
71108;SDS011;59614;51.012;-1.648;2023-02-24T04:02:48;13.32;;;6.43;;
71108;SDS011;59614;51.012;-1.648;2023-02-24T04:05:23;16.75;;;6.63;;
71108;SDS011;59614;51.012;-1.648;2023-02-24T04:07:58;16.00;;;5.82;;
71108;SDS011;59614;51.012;-1.648;2023-02-24T04:16:07;15.70;;;6.38;;
71108;SDS011;59614;51.012;-1.648;2023-02-24T04:18:41;19.30;;;6.50;;
71108;SDS011;59614;51.012;-1.648;2023-02-24T04:21:12;14.07;;;6.20;;
71108;SDS011;59614;51.012;-1.648;2023-02-24T04:23:41;14.23;;;5.80;;
71108;SDS011;59614;51.012;-1.648;2023-02-24T04:26:09;11.75;;;6.40;;
71108;SDS011;59614;51.012;-1.648;2023-02-24T04:28:39;21.10;;;6.72;;
71108;SDS011;59614;51.012;-1.648;2023-02-24T04:31:07;17.47;;;6.47;;
71108;SDS011;59614;51.012;-1.648;2023-02-24T04:33:41;17.73;;;6.47;;
71108;SDS011;59614;51.012;-1.648;2023-02-24T04:36:07;13.07;;;6.13;;
71108;SDS011;59614;51.012;-1.648;2023-02-24T04:38:37;15.90;;;6.00;;
71108;SDS011;59614;51.012;-1.648;2023-02-24T04:41:02;17.75;;;6.30;;
71108;SDS011;59614;51.012;-1.648;2023-02-24T04:43:29;17.95;;;6.82;;
71108;SDS011;59614;51.012;-1.648;2023-02-24T04:45:54;15.32;;;6.22;;
71108;SDS011;59614;51.012;-1.648;2023-02-24T04:48:20;22.48;;;6.40;;
71108;SDS011;59614;51.012;-1.648;2023-02-24T04:50:45;15.55;;;5.30;;
71108;SDS011;59614;51.012;-1.648;2023-02-24T04:53:18;13.45;;;5.10;;
71108;SDS011;59614;51.012;-1.648;2023-02-24T04:55:50;14.05;;;5.38;;
71108;SDS011;59614;51.012;-1.648;2023-02-24T04:58:18;13.50;;;5.50;;
71108;SDS011;59614;51.012;-1.648;2023-02-24T05:03:16;15.98;;;4.85;;
71108;SDS011;59614;51.012;-1.648;2023-02-24T05:05:49;20.95;;;5.72;;
71108;SDS011;59614;51.012;-1.648;2023-02-24T05:08:17;12.95;;;4.72;;
71108;SDS011;59614;51.012;-1.648;2023-02-24T05:10:44;24.55;;;5.60;;
71108;SDS011;59614;51.012;-1.648;2023-02-24T05:13:19;16.50;;;5.03;;
71108;SDS011;59614;51.012;-1.648;2023-02-24T05:15:50;16.50;;;4.88;;
71108;SDS011;59614;51.012;-1.648;2023-02-24T05:18:16;15.32;;;5.50;;
71108;SDS011;59614;51.012;-1.648;2023-02-24T05:20:42;14.93;;;5.10;;
71108;SDS011;59614;51.012;-1.648;2023-02-24T05:23:30;16.98;;;5.35;;
71108;SDS011;59614;51.012;-1.648;2023-02-24T05:25:58;16.00;;;4.90;;
71108;SDS011;59614;51.012;-1.648;2023-02-24T05:28:24;14.63;;;4.53;;
71108;SDS011;59614;51.012;-1.648;2023-02-24T05:30:50;17.50;;;5.40;;
71108;SDS011;59614;51.012;-1.648;2023-02-24T05:33:20;13.77;;;4.25;;
71108;SDS011;59614;51.012;-1.648;2023-02-24T05:35:46;12.63;;;4.63;;
71108;SDS011;59614;51.012;-1.648;2023-02-24T05:38:13;17.60;;;4.28;;
71108;SDS011;59614;51.012;-1.648;2023-02-24T05:40:39;12.02;;;4.40;;
71108;SDS011;59614;51.012;-1.648;2023-02-24T05:43:11;12.00;;;4.68;;
71108;SDS011;59614;51.012;-1.648;2023-02-24T05:45:42;15.50;;;4.78;;
71108;SDS011;59614;51.012;-1.648;2023-02-24T05:48:09;15.73;;;5.07;;
71108;SDS011;59614;51.012;-1.648;2023-02-24T05:50:35;12.50;;;4.43;;
71108;SDS011;59614;51.012;-1.648;2023-02-24T05:53:03;15.83;;;5.07;;
71108;SDS011;59614;51.012;-1.648;2023-02-24T05:55:28;14.95;;;4.70;;
71108;SDS011;59614;51.012;-1.648;2023-02-24T05:57:55;10.75;;;4.13;;
71108;SDS011;59614;51.012;-1.648;2023-02-24T06:00:23;12.77;;;3.83;;
71108;SDS011;59614;51.012;-1.648;2023-02-24T06:02:50;13.45;;;4.75;;
71108;SDS011;59614;51.012;-1.648;2023-02-24T06:05:17;9.52;;;3.95;;
71108;SDS011;59614;51.012;-1.648;2023-02-24T06:07:53;19.50;;;4.30;;
71108;SDS011;59614;51.012;-1.648;2023-02-24T06:10:27;21.73;;;4.60;;
71108;SDS011;59614;51.012;-1.648;2023-02-24T06:12:53;19.50;;;3.83;;
71108;SDS011;59614;51.012;-1.648;2023-02-24T06:15:18;17.10;;;3.92;;
71108;SDS011;59614;51.012;-1.648;2023-02-24T06:17:44;14.15;;;4.63;;
71108;SDS011;59614;51.012;-1.648;2023-02-24T06:20:09;10.70;;;4.13;;
71108;SDS011;59614;51.012;-1.648;2023-02-24T06:22:38;14.32;;;4.60;;
71108;SDS011;59614;51.012;-1.648;2023-02-24T06:25:06;12.23;;;4.03;;
71108;SDS011;59614;51.012;-1.648;2023-02-24T06:27:33;13.23;;;4.88;;
71108;SDS011;59614;51.012;-1.648;2023-02-24T06:30:00;15.15;;;3.42;;
71108;SDS011;59614;51.012;-1.648;2023-02-24T06:32:26;16.25;;;3.65;;
71108;SDS011;59614;51.012;-1.648;2023-02-24T06:34:52;12.40;;;4.45;;
71108;SDS011;59614;51.012;-1.648;2023-02-24T06:37:18;9.82;;;3.53;;
71108;SDS011;59614;51.012;-1.648;2023-02-24T06:39:44;15.85;;;4.90;;
71108;SDS011;59614;51.012;-1.648;2023-02-24T06:42:10;13.23;;;4.00;;
71108;SDS011;59614;51.012;-1.648;2023-02-24T06:44:37;13.45;;;4.10;;
71108;SDS011;59614;51.012;-1.648;2023-02-24T06:47:04;19.83;;;4.33;;
71108;SDS011;59614;51.012;-1.648;2023-02-24T06:49:31;13.30;;;4.03;;
71108;SDS011;59614;51.012;-1.648;2023-02-24T06:51:58;20.67;;;4.38;;
71108;SDS011;59614;51.012;-1.648;2023-02-24T06:54:24;16.35;;;4.00;;
71108;SDS011;59614;51.012;-1.648;2023-02-24T06:56:52;14.88;;;4.45;;
71108;SDS011;59614;51.012;-1.648;2023-02-24T06:59:18;9.32;;;3.70;;
71108;SDS011;59614;51.012;-1.648;2023-02-24T07:01:47;9.45;;;3.80;;
71108;SDS011;59614;51.012;-1.648;2023-02-24T07:04:13;9.93;;;3.67;;
71108;SDS011;59614;51.012;-1.648;2023-02-24T07:06:40;14.05;;;3.70;;
71108;SDS011;59614;51.012;-1.648;2023-02-24T07:09:08;15.65;;;4.28;;
71108;SDS011;59614;51.012;-1.648;2023-02-24T07:11:38;15.80;;;4.03;;
71108;SDS011;59614;51.012;-1.648;2023-02-24T07:14:06;18.52;;;3.85;;
71108;SDS011;59614;51.012;-1.648;2023-02-24T07:16:32;19.70;;;3.95;;
71108;SDS011;59614;51.012;-1.648;2023-02-24T07:19:03;12.90;;;3.60;;
71108;SDS011;59614;51.012;-1.648;2023-02-24T07:21:35;14.65;;;4.00;;
71108;SDS011;59614;51.012;-1.648;2023-02-24T07:24:06;9.48;;;2.80;;
71108;SDS011;59614;51.012;-1.648;2023-02-24T07:26:32;12.10;;;3.60;;
71108;SDS011;59614;51.012;-1.648;2023-02-24T07:28:59;12.85;;;4.13;;
71108;SDS011;59614;51.012;-1.648;2023-02-24T07:31:28;12.80;;;3.33;;
71108;SDS011;59614;51.012;-1.648;2023-02-24T07:33:56;9.20;;;3.30;;
71108;SDS011;59614;51.012;-1.648;2023-02-24T07:36:22;15.73;;;5.35;;
71108;SDS011;59614;51.012;-1.648;2023-02-24T07:38:50;14.20;;;3.58;;
71108;SDS011;59614;51.012;-1.648;2023-02-24T07:41:16;13.98;;;3.58;;
71108;SDS011;59614;51.012;-1.648;2023-02-24T07:43:46;12.15;;;3.50;;
71108;SDS011;59614;51.012;-1.648;2023-02-24T07:46:16;12.73;;;3.30;;
71108;SDS011;59614;51.012;-1.648;2023-02-24T07:48:44;11.20;;;3.45;;
71108;SDS011;59614;51.012;-1.648;2023-02-24T07:51:11;13.02;;;4.78;;
71108;SDS011;59614;51.012;-1.648;2023-02-24T07:53:39;30.20;;;11.80;;
71108;SDS011;59614;51.012;-1.648;2023-02-24T07:56:09;15.65;;;5.38;;
71108;SDS011;59614;51.012;-1.648;2023-02-24T07:58:45;16.73;;;5.13;;
71108;SDS011;59614;51.012;-1.648;2023-02-24T08:01:15;14.05;;;3.70;;
71108;SDS011;59614;51.012;-1.648;2023-02-24T08:03:50;19.70;;;4.78;;
71108;SDS011;59614;51.012;-1.648;2023-02-24T08:06:20;17.35;;;5.07;;
71108;SDS011;59614;51.012;-1.648;2023-02-24T08:08:57;21.57;;;3.73;;
71108;SDS011;59614;51.012;-1.648;2023-02-24T08:11:26;14.27;;;4.25;;
71108;SDS011;59614;51.012;-1.648;2023-02-24T08:14:03;16.67;;;3.80;;
71108;SDS011;59614;51.012;-1.648;2023-02-24T08:16:35;19.08;;;3.45;;
71108;SDS011;59614;51.012;-1.648;2023-02-24T08:19:04;14.00;;;2.95;;
71108;SDS011;59614;51.012;-1.648;2023-02-24T08:21:40;13.93;;;2.80;;
71108;SDS011;59614;51.012;-1.648;2023-02-24T08:24:21;10.75;;;2.90;;
71108;SDS011;59614;51.012;-1.648;2023-02-24T08:26:52;15.83;;;3.13;;
71108;SDS011;59614;51.012;-1.648;2023-02-24T08:29:31;19.30;;;5.53;;
71108;SDS011;59614;51.012;-1.648;2023-02-24T08:32:21;17.88;;;4.63;;
71108;SDS011;59614;51.012;-1.648;2023-02-24T08:34:48;12.35;;;3.85;;
71108;SDS011;59614;51.012;-1.648;2023-02-24T08:37:14;13.52;;;3.80;;
71108;SDS011;59614;51.012;-1.648;2023-02-24T08:39:41;11.68;;;3.53;;
71108;SDS011;59614;51.012;-1.648;2023-02-24T08:42:08;13.35;;;3.35;;
71108;SDS011;59614;51.012;-1.648;2023-02-24T08:44:38;22.63;;;4.70;;
71108;SDS011;59614;51.012;-1.648;2023-02-24T08:47:04;16.92;;;4.00;;
71108;SDS011;59614;51.012;-1.648;2023-02-24T08:49:31;19.85;;;3.72;;
71108;SDS011;59614;51.012;-1.648;2023-02-24T08:51:58;21.77;;;5.88;;
71108;SDS011;59614;51.012;-1.648;2023-02-24T08:54:26;12.35;;;4.13;;
71108;SDS011;59614;51.012;-1.648;2023-02-24T08:56:56;20.08;;;3.20;;
71108;SDS011;59614;51.012;-1.648;2023-02-24T08:59:32;11.65;;;3.20;;
71108;SDS011;59614;51.012;-1.648;2023-02-24T09:02:12;11.07;;;2.70;;
71108;SDS011;59614;51.012;-1.648;2023-02-24T09:04:46;16.85;;;3.10;;
71108;SDS011;59614;51.012;-1.648;2023-02-24T09:07:14;21.70;;;4.22;;
71108;SDS011;59614;51.012;-1.648;2023-02-24T09:12:07;14.98;;;3.75;;
71108;SDS011;59614;51.012;-1.648;2023-02-24T09:14:34;14.93;;;3.03;;
71108;SDS011;59614;51.012;-1.648;2023-02-24T09:17:04;12.15;;;2.97;;
71108;SDS011;59614;51.012;-1.648;2023-02-24T09:22:04;13.75;;;3.50;;
71108;SDS011;59614;51.012;-1.648;2023-02-24T09:25:02;8.65;;;3.38;;
71108;SDS011;59614;51.012;-1.648;2023-02-24T09:27:46;9.85;;;2.80;;
71108;SDS011;59614;51.012;-1.648;2023-02-24T09:30:20;9.27;;;2.95;;
71108;SDS011;59614;51.012;-1.648;2023-02-24T09:33:14;10.40;;;3.88;;
71108;SDS011;59614;51.012;-1.648;2023-02-24T09:35:49;9.85;;;2.92;;
71108;SDS011;59614;51.012;-1.648;2023-02-24T09:38:18;11.63;;;3.50;;
71108;SDS011;59614;51.012;-1.648;2023-02-24T09:40:45;10.45;;;3.00;;
71108;SDS011;59614;51.012;-1.648;2023-02-24T09:45:59;11.40;;;3.72;;
71108;SDS011;59614;51.012;-1.648;2023-02-24T09:48:40;11.32;;;3.45;;
71108;SDS011;59614;51.012;-1.648;2023-02-24T09:51:13;8.23;;;3.17;;
71108;SDS011;59614;51.012;-1.648;2023-02-24T09:53:47;10.93;;;3.40;;
71108;SDS011;59614;51.012;-1.648;2023-02-24T10:01:45;11.00;;;2.90;;
71108;SDS011;59614;51.012;-1.648;2023-02-24T10:06:58;9.85;;;3.25;;
71108;SDS011;59614;51.012;-1.648;2023-02-24T10:09:36;18.05;;;4.57;;
71108;SDS011;59614;51.012;-1.648;2023-02-24T10:14:42;11.57;;;3.33;;
71108;SDS011;59614;51.012;-1.648;2023-02-24T10:17:19;13.15;;;4.43;;
71108;SDS011;59614;51.012;-1.648;2023-02-24T10:19:50;12.00;;;3.90;;
71108;SDS011;59614;51.012;-1.648;2023-02-24T10:22:26;14.02;;;4.10;;
71108;SDS011;59614;51.012;-1.648;2023-02-24T10:25:18;10.65;;;3.55;;
71108;SDS011;59614;51.012;-1.648;2023-02-24T10:30:29;19.58;;;3.45;;
71108;SDS011;59614;51.012;-1.648;2023-02-24T10:33:09;12.10;;;3.47;;
71108;SDS011;59614;51.012;-1.648;2023-02-24T10:35:42;6.68;;;3.03;;
71108;SDS011;59614;51.012;-1.648;2023-02-24T10:38:08;11.85;;;3.75;;
71108;SDS011;59614;51.012;-1.648;2023-02-24T10:40:43;14.55;;;3.50;;
71108;SDS011;59614;51.012;-1.648;2023-02-24T10:43:15;9.33;;;3.20;;
71108;SDS011;59614;51.012;-1.648;2023-02-24T10:45:43;11.50;;;3.20;;
71108;SDS011;59614;51.012;-1.648;2023-02-24T10:48:14;15.70;;;3.75;;
71108;SDS011;59614;51.012;-1.648;2023-02-24T10:50:48;11.98;;;3.40;;
71108;SDS011;59614;51.012;-1.648;2023-02-24T10:53:32;15.45;;;2.90;;
71108;SDS011;59614;51.012;-1.648;2023-02-24T10:56:02;8.95;;;2.88;;
71108;SDS011;59614;51.012;-1.648;2023-02-24T10:59:01;6.20;;;2.67;;
71108;SDS011;59614;51.012;-1.648;2023-02-24T11:02:18;9.10;;;2.88;;
71108;SDS011;59614;51.012;-1.648;2023-02-24T11:04:54;14.65;;;2.78;;
71108;SDS011;59614;51.012;-1.648;2023-02-24T11:07:23;13.10;;;2.95;;
71108;SDS011;59614;51.012;-1.648;2023-02-24T11:10:02;10.98;;;3.22;;
71108;SDS011;59614;51.012;-1.648;2023-02-24T11:12:35;9.73;;;3.08;;
71108;SDS011;59614;51.012;-1.648;2023-02-24T11:15:43;12.80;;;2.92;;
71108;SDS011;59614;51.012;-1.648;2023-02-24T11:18:30;12.32;;;2.78;;
71108;SDS011;59614;51.012;-1.648;2023-02-24T11:21:07;8.00;;;2.72;;
71108;SDS011;59614;51.012;-1.648;2023-02-24T11:23:43;9.88;;;2.63;;
71108;SDS011;59614;51.012;-1.648;2023-02-24T11:29:08;11.93;;;2.63;;
71108;SDS011;59614;51.012;-1.648;2023-02-24T11:34:42;12.23;;;3.58;;
71108;SDS011;59614;51.012;-1.648;2023-02-24T11:37:37;12.40;;;3.00;;
71108;SDS011;59614;51.012;-1.648;2023-02-24T11:40:04;14.07;;;2.72;;
71108;SDS011;59614;51.012;-1.648;2023-02-24T11:45:07;8.60;;;2.70;;
71108;SDS011;59614;51.012;-1.648;2023-02-24T11:47:43;10.15;;;3.03;;
71108;SDS011;59614;51.012;-1.648;2023-02-24T11:52:50;11.93;;;2.83;;
71108;SDS011;59614;51.012;-1.648;2023-02-24T11:55:26;10.32;;;3.03;;
71108;SDS011;59614;51.012;-1.648;2023-02-24T11:57:58;12.60;;;3.08;;
71108;SDS011;59614;51.012;-1.648;2023-02-24T12:00:27;6.88;;;2.80;;
71108;SDS011;59614;51.012;-1.648;2023-02-24T12:05:41;11.95;;;3.28;;
71108;SDS011;59614;51.012;-1.648;2023-02-24T12:08:18;10.48;;;3.20;;
71108;SDS011;59614;51.012;-1.648;2023-02-24T12:11:10;10.07;;;2.80;;
71108;SDS011;59614;51.012;-1.648;2023-02-24T12:14:24;9.65;;;3.10;;
71108;SDS011;59614;51.012;-1.648;2023-02-24T12:17:39;12.75;;;3.40;;
71108;SDS011;59614;51.012;-1.648;2023-02-24T12:22:49;14.60;;;3.70;;
71108;SDS011;59614;51.012;-1.648;2023-02-24T12:25:38;9.50;;;3.78;;
71108;SDS011;59614;51.012;-1.648;2023-02-24T12:31:05;10.57;;;3.22;;
71108;SDS011;59614;51.012;-1.648;2023-02-24T12:42:15;10.38;;;3.65;;
71108;SDS011;59614;51.012;-1.648;2023-02-24T12:45:06;14.88;;;3.55;;
71108;SDS011;59614;51.012;-1.648;2023-02-24T12:52:58;8.48;;;3.50;;
71108;SDS011;59614;51.012;-1.648;2023-02-24T13:00:47;10.63;;;3.55;;
71108;SDS011;59614;51.012;-1.648;2023-02-24T13:03:23;9.95;;;3.33;;
71108;SDS011;59614;51.012;-1.648;2023-02-24T13:12:05;11.13;;;3.67;;
71108;SDS011;59614;51.012;-1.648;2023-02-24T13:14:38;9.43;;;3.10;;
71108;SDS011;59614;51.012;-1.648;2023-02-24T13:22:06;11.05;;;3.22;;
71108;SDS011;59614;51.012;-1.648;2023-02-24T13:24:35;15.10;;;3.90;;
71108;SDS011;59614;51.012;-1.648;2023-02-24T13:29:47;11.95;;;3.60;;
71108;SDS011;59614;51.012;-1.648;2023-02-24T13:32:26;8.55;;;3.50;;
71108;SDS011;59614;51.012;-1.648;2023-02-24T13:35:00;8.68;;;3.70;;
71108;SDS011;59614;51.012;-1.648;2023-02-24T13:37:37;7.68;;;3.22;;
71108;SDS011;59614;51.012;-1.648;2023-02-24T13:42:40;9.88;;;3.00;;
71108;SDS011;59614;51.012;-1.648;2023-02-24T13:58:18;11.85;;;4.45;;
71108;SDS011;59614;51.012;-1.648;2023-02-24T14:01:07;12.40;;;3.15;;
71108;SDS011;59614;51.012;-1.648;2023-02-24T14:03:35;8.73;;;3.20;;
71108;SDS011;59614;51.012;-1.648;2023-02-24T14:06:04;11.65;;;3.65;;
71108;SDS011;59614;51.012;-1.648;2023-02-24T14:11:00;7.45;;;3.33;;
71108;SDS011;59614;51.012;-1.648;2023-02-24T14:13:28;6.82;;;2.80;;
71108;SDS011;59614;51.012;-1.648;2023-02-24T14:15:58;8.60;;;2.90;;
71108;SDS011;59614;51.012;-1.648;2023-02-24T14:18:25;7.03;;;3.05;;
71108;SDS011;59614;51.012;-1.648;2023-02-24T14:20:53;9.90;;;3.55;;
71108;SDS011;59614;51.012;-1.648;2023-02-24T14:23:21;8.83;;;3.10;;
71108;SDS011;59614;51.012;-1.648;2023-02-24T14:25:52;8.55;;;4.85;;
71108;SDS011;59614;51.012;-1.648;2023-02-24T14:28:24;9.77;;;3.80;;
71108;SDS011;59614;51.012;-1.648;2023-02-24T14:30:57;8.02;;;3.30;;
71108;SDS011;59614;51.012;-1.648;2023-02-24T14:33:34;7.55;;;3.72;;
71108;SDS011;59614;51.012;-1.648;2023-02-24T14:36:03;8.63;;;3.70;;
71108;SDS011;59614;51.012;-1.648;2023-02-24T14:40:56;7.80;;;3.80;;
71108;SDS011;59614;51.012;-1.648;2023-02-24T14:43:22;11.00;;;3.80;;
71108;SDS011;59614;51.012;-1.648;2023-02-24T14:45:48;9.45;;;3.80;;
71108;SDS011;59614;51.012;-1.648;2023-02-24T14:48:51;7.65;;;3.50;;
71108;SDS011;59614;51.012;-1.648;2023-02-24T14:53:36;12.68;;;3.55;;
71108;SDS011;59614;51.012;-1.648;2023-02-24T14:56:07;9.60;;;4.40;;
71108;SDS011;59614;51.012;-1.648;2023-02-24T14:58:41;12.70;;;4.25;;
71108;SDS011;59614;51.012;-1.648;2023-02-24T15:01:25;12.63;;;3.97;;
71108;SDS011;59614;51.012;-1.648;2023-02-24T15:03:53;14.23;;;5.00;;
71108;SDS011;59614;51.012;-1.648;2023-02-24T15:06:24;9.80;;;3.75;;
71108;SDS011;59614;51.012;-1.648;2023-02-24T15:09:00;9.13;;;3.53;;
71108;SDS011;59614;51.012;-1.648;2023-02-24T15:11:32;8.52;;;3.45;;
71108;SDS011;59614;51.012;-1.648;2023-02-24T15:14:01;11.50;;;3.20;;
71108;SDS011;59614;51.012;-1.648;2023-02-24T15:16:37;8.55;;;4.30;;
71108;SDS011;59614;51.012;-1.648;2023-02-24T15:24:46;10.10;;;3.83;;
71108;SDS011;59614;51.012;-1.648;2023-02-24T15:29:37;10.05;;;3.83;;
71108;SDS011;59614;51.012;-1.648;2023-02-24T15:32:02;9.25;;;3.67;;
71108;SDS011;59614;51.012;-1.648;2023-02-24T15:34:31;17.05;;;6.80;;
71108;SDS011;59614;51.012;-1.648;2023-02-24T15:37:00;21.95;;;7.85;;
71108;SDS011;59614;51.012;-1.648;2023-02-24T15:39:29;28.08;;;11.95;;
71108;SDS011;59614;51.012;-1.648;2023-02-24T15:45:35;11.03;;;4.87;;
71108;SDS011;59614;51.012;-1.648;2023-02-24T15:47:53;9.93;;;4.63;;
71108;SDS011;59614;51.012;-1.648;2023-02-24T15:50:21;19.50;;;8.77;;
71108;SDS011;59614;51.012;-1.648;2023-02-24T15:52:47;17.10;;;8.70;;
71108;SDS011;59614;51.012;-1.648;2023-02-24T15:55:14;22.98;;;10.07;;
71108;SDS011;59614;51.012;-1.648;2023-02-24T15:57:41;13.30;;;5.15;;
71108;SDS011;59614;51.012;-1.648;2023-02-24T16:00:07;13.30;;;6.32;;
71108;SDS011;59614;51.012;-1.648;2023-02-24T16:02:40;15.57;;;8.65;;
71108;SDS011;59614;51.012;-1.648;2023-02-24T16:05:05;20.92;;;9.95;;
71108;SDS011;59614;51.012;-1.648;2023-02-24T16:07:34;46.08;;;20.83;;
71108;SDS011;59614;51.012;-1.648;2023-02-24T16:10:02;13.93;;;7.32;;
71108;SDS011;59614;51.012;-1.648;2023-02-24T16:12:30;14.63;;;7.97;;
71108;SDS011;59614;51.012;-1.648;2023-02-24T16:14:59;13.95;;;6.57;;
71108;SDS011;59614;51.012;-1.648;2023-02-24T16:19:55;11.80;;;6.68;;
71108;SDS011;59614;51.012;-1.648;2023-02-24T16:22:21;20.67;;;10.52;;
71108;SDS011;59614;51.012;-1.648;2023-02-24T16:24:47;19.60;;;10.48;;
71108;SDS011;59614;51.012;-1.648;2023-02-24T16:27:16;27.20;;;13.85;;
71108;SDS011;59614;51.012;-1.648;2023-02-24T16:29:43;15.50;;;9.75;;
71108;SDS011;59614;51.012;-1.648;2023-02-24T16:32:09;31.70;;;12.98;;
71108;SDS011;59614;51.012;-1.648;2023-02-24T16:34:35;37.08;;;18.48;;
71108;SDS011;59614;51.012;-1.648;2023-02-24T16:37:01;24.15;;;11.65;;
71108;SDS011;59614;51.012;-1.648;2023-02-24T16:39:26;20.15;;;12.52;;
71108;SDS011;59614;51.012;-1.648;2023-02-24T16:41:53;15.20;;;7.70;;
71108;SDS011;59614;51.012;-1.648;2023-02-24T16:44:18;19.63;;;9.88;;
71108;SDS011;59614;51.012;-1.648;2023-02-24T16:46:44;14.73;;;9.00;;
71108;SDS011;59614;51.012;-1.648;2023-02-24T16:49:11;15.20;;;7.05;;
71108;SDS011;59614;51.012;-1.648;2023-02-24T16:51:42;17.52;;;10.55;;
71108;SDS011;59614;51.012;-1.648;2023-02-24T16:54:07;22.08;;;10.85;;
71108;SDS011;59614;51.012;-1.648;2023-02-24T16:56:33;16.83;;;9.00;;
71108;SDS011;59614;51.012;-1.648;2023-02-24T16:58:58;13.75;;;7.45;;
71108;SDS011;59614;51.012;-1.648;2023-02-24T17:01:24;12.15;;;6.60;;
71108;SDS011;59614;51.012;-1.648;2023-02-24T17:03:50;9.32;;;4.47;;
71108;SDS011;59614;51.012;-1.648;2023-02-24T17:06:17;11.68;;;7.00;;
71108;SDS011;59614;51.012;-1.648;2023-02-24T17:08:43;11.07;;;4.07;;
71108;SDS011;59614;51.012;-1.648;2023-02-24T17:11:13;10.20;;;4.07;;
71108;SDS011;59614;51.012;-1.648;2023-02-24T17:13:41;9.70;;;4.07;;